Time;durP1;ratioP1;P1;durP2;ratioP2;P2;SDS_P1;SDS_P2;PMS_P1;PMS_P2;Temp;Humidity;BMP_temperature;BMP_pressure;BME280_temperature;BME280_humidity;BME280_pressure;Samples;Min_cycle;Max_cycle;Signal;HPM_P1;HPM_P2
2022/11/26 00:00:42;;;;;;;6.57;4.75;;;8.10;92.90;;;;;;4953016;29;20190;-68
2022/11/26 00:03:09;;;;;;;6.22;4.15;;;8.10;93.00;;;;;;4953869;29;20280;-67
2022/11/26 00:05:37;;;;;;;10.52;4.45;;;8.10;92.90;;;;;;4953043;29;20699;-67
2022/11/26 00:08:04;;;;;;;7.88;4.45;;;8.10;93.00;;;;;;4955190;29;20198;-67
2022/11/26 00:10:36;;;;;;;7.68;3.67;;;8.10;92.90;;;;;;4954620;29;20190;-69
2022/11/26 00:13:15;;;;;;;11.00;4.25;;;8.10;92.90;;;;;;4953448;29;20573;-68
2022/11/26 00:15:42;;;;;;;6.97;5.18;;;8.10;93.00;;;;;;4954320;29;20182;-67
2022/11/26 00:18:09;;;;;;;7.03;3.30;;;8.20;93.00;;;;;;4955516;29;20624;-68
2022/11/26 00:20:36;;;;;;;6.10;3.50;;;8.20;92.80;;;;;;4954608;29;20253;-67
2022/11/26 00:23:04;;;;;;;8.57;4.75;;;8.20;92.70;;;;;;4955506;29;20276;-67
2022/11/26 00:25:38;;;;;;;8.07;4.72;;;8.10;93.10;;;;;;4954491;29;20256;-67
2022/11/26 00:28:24;;;;;;;9.10;4.68;;;8.00;93.40;;;;;;4955430;29;20194;-67
2022/11/26 00:30:52;;;;;;;7.43;4.25;;;7.90;93.40;;;;;;4954021;29;20186;-68
2022/11/26 00:33:19;;;;;;;9.38;4.40;;;7.80;94.00;;;;;;4955352;29;20312;-67
2022/11/26 00:35:48;;;;;;;5.53;3.88;;;7.80;94.20;;;;;;4953582;28;20225;-67
2022/11/26 00:38:18;;;;;;;8.38;3.92;;;7.80;94.40;;;;;;4955065;29;20252;-67
2022/11/26 00:40:45;;;;;;;5.85;3.78;;;7.80;94.30;;;;;;4954731;29;20578;-67
2022/11/26 00:43:15;;;;;;;7.88;4.07;;;7.90;94.20;;;;;;4954781;29;20202;-67
2022/11/26 00:45:42;;;;;;;7.82;4.03;;;7.90;94.10;;;;;;4953930;29;20553;-65
2022/11/26 00:48:09;;;;;;;5.25;4.22;;;7.90;94.10;;;;;;4954219;29;20237;-65
2022/11/26 00:50:38;;;;;;;5.47;4.65;;;7.80;94.20;;;;;;4954367;29;20198;-66
2022/11/26 00:53:07;;;;;;;7.70;4.22;;;7.80;94.40;;;;;;4954705;29;20222;-66
2022/11/26 00:55:36;;;;;;;6.85;3.70;;;7.90;94.40;;;;;;4954115;29;20637;-66
2022/11/26 00:58:05;;;;;;;6.30;4.68;;;7.90;94.30;;;;;;4954830;29;20289;-66
2022/11/26 01:00:35;;;;;;;5.55;4.10;;;7.80;94.10;;;;;;4953315;29;20194;-66
2022/11/26 01:03:02;;;;;;;6.30;3.60;;;7.80;94.20;;;;;;4954600;29;20241;-66
2022/11/26 01:05:32;;;;;;;5.80;4.70;;;7.80;94.20;;;;;;4953572;29;20622;-66
2022/11/26 01:08:15;;;;;;;6.75;4.70;;;7.90;94.30;;;;;;4954349;29;20486;-66
2022/11/26 01:10:42;;;;;;;6.00;4.10;;;7.90;94.10;;;;;;4952684;29;20660;-66
2022/11/26 01:13:11;;;;;;;6.53;4.22;;;7.90;94.00;;;;;;4954605;29;20700;-66
2022/11/26 01:15:40;;;;;;;7.10;4.60;;;7.90;93.90;;;;;;4953509;29;20240;-66
2022/11/26 01:18:12;;;;;;;5.57;3.78;;;7.90;93.80;;;;;;4954594;29;20280;-66
2022/11/26 01:20:40;;;;;;;6.32;3.80;;;7.90;93.80;;;;;;4953226;29;20204;-66
2022/11/26 01:23:10;;;;;;;4.43;3.85;;;7.90;93.70;;;;;;4953888;29;20217;-66
2022/11/26 01:25:38;;;;;;;5.85;3.58;;;7.90;93.70;;;;;;4953774;29;20299;-66
2022/11/26 01:28:05;;;;;;;5.18;3.40;;;7.90;93.50;;;;;;4954375;29;20653;-66
2022/11/26 01:30:33;;;;;;;4.93;2.85;;;7.90;93.50;;;;;;4953481;29;20237;-66
2022/11/26 01:33:02;;;;;;;10.60;3.97;;;7.90;93.50;;;;;;4954303;29;20711;-66
2022/11/26 01:35:29;;;;;;;4.70;3.28;;;7.90;93.50;;;;;;4953075;29;20190;-66
2022/11/26 01:37:56;;;;;;;7.15;3.53;;;7.90;93.30;;;;;;4953572;29;20186;-66
2022/11/26 01:41:08;;;;;;;4.82;3.15;;;7.90;93.30;;;;;;4953261;29;20560;-66
2022/11/26 01:43:39;;;;;;;7.35;3.50;;;7.90;93.40;;;;;;4942986;29;20189;-66
2022/11/26 01:46:14;;;;;;;4.25;2.88;;;7.90;93.30;;;;;;4953777;29;20190;-66
2022/11/26 01:48:42;;;;;;;3.67;2.85;;;7.80;93.30;;;;;;4956376;28;20193;-66
2022/11/26 01:51:10;;;;;;;4.97;3.00;;;7.80;93.30;;;;;;4957149;29;20273;-66
2022/11/26 01:53:43;;;;;;;5.80;3.55;;;7.80;93.30;;;;;;4958182;29;20225;-67
2022/11/26 01:56:31;;;;;;;5.32;3.45;;;7.80;93.30;;;;;;4956598;29;20240;-66
2022/11/26 01:59:04;;;;;;;5.10;3.40;;;7.70;93.30;;;;;;4957597;29;20518;-66
2022/11/26 02:01:33;;;;;;;5.75;3.60;;;7.70;93.20;;;;;;4957343;29;20194;-66
2022/11/26 02:04:11;;;;;;;5.75;3.13;;;7.60;93.20;;;;;;4956833;29;20223;-66
2022/11/26 02:06:41;;;;;;;7.13;3.53;;;7.60;93.10;;;;;;4956747;29;20186;-66
2022/11/26 02:09:09;;;;;;;6.18;3.80;;;7.60;93.10;;;;;;4957866;29;20189;-66
2022/11/26 02:11:37;;;;;;;6.97;3.85;;;7.50;93.20;;;;;;4957143;29;20186;-66
2022/11/26 02:14:08;;;;;;;4.63;3.47;;;7.40;93.50;;;;;;4957167;29;20225;-67
2022/11/26 02:17:14;;;;;;;5.97;4.07;;;7.40;93.60;;;;;;4956263;29;20178;-66
2022/11/26 02:20:16;;;;;;;4.82;3.55;;;7.30;93.70;;;;;;4955922;29;20232;-66
2022/11/26 02:23:17;;;;;;;5.10;3.92;;;7.30;93.90;;;;;;4947311;29;20284;-66
2022/11/26 02:26:18;;;;;;;6.68;3.70;;;7.20;93.90;;;;;;4957078;29;20202;-66
2022/11/26 02:29:08;;;;;;;7.55;4.93;;;7.20;94.30;;;;;;4956559;28;20307;-65
2022/11/26 02:31:41;;;;;;;7.32;3.35;;;7.10;94.40;;;;;;4955277;29;20202;-65
2022/11/26 02:34:15;;;;;;;4.80;2.92;;;7.10;94.40;;;;;;4957437;29;20283;-65
2022/11/26 02:36:47;;;;;;;6.53;3.80;;;7.00;94.40;;;;;;4956112;29;20728;-65
2022/11/26 02:39:16;;;;;;;5.45;3.15;;;7.00;94.40;;;;;;4957205;29;20202;-65
2022/11/26 02:41:45;;;;;;;4.82;3.40;;;7.00;94.50;;;;;;4956254;29;20205;-65
2022/11/26 02:44:13;;;;;;;4.40;3.40;;;6.90;94.50;;;;;;4957263;29;20253;-65
2022/11/26 02:46:43;;;;;;;5.47;3.53;;;6.80;94.80;;;;;;4956073;29;20693;-65
2022/11/26 02:49:13;;;;;;;4.88;3.05;;;6.80;94.80;;;;;;4956453;29;20329;-66
2022/11/26 02:51:42;;;;;;;4.10;3.03;;;6.70;94.80;;;;;;4956569;29;20261;-65
2022/11/26 02:54:11;;;;;;;10.20;4.45;;;6.80;94.90;;;;;;4956275;29;20311;-66
2022/11/26 02:56:39;;;;;;;6.70;3.50;;;6.70;94.80;;;;;;4956965;29;20233;-65
2022/11/26 02:59:07;;;;;;;5.28;3.10;;;6.60;94.90;;;;;;4956704;28;20190;-65
2022/11/26 03:01:39;;;;;;;6.82;3.55;;;6.60;94.90;;;;;;4956256;29;20328;-65
2022/11/26 03:04:11;;;;;;;5.97;3.92;;;6.50;95.20;;;;;;4956561;29;20230;-65
2022/11/26 03:06:40;;;;;;;10.60;4.13;;;6.50;95.10;;;;;;4955782;29;20186;-66
2022/11/26 03:09:08;;;;;;;7.18;3.45;;;6.40;95.00;;;;;;4957023;29;20206;-66
2022/11/26 03:11:35;;;;;;;6.05;3.15;;;6.30;95.00;;;;;;4951565;29;20214;-65
2022/11/26 03:14:02;;;;;;;4.63;2.95;;;6.40;94.90;;;;;;4954377;29;20216;-65
2022/11/26 03:16:29;;;;;;;4.05;3.30;;;6.30;95.00;;;;;;4956928;29;20225;-66
2022/11/26 03:18:56;;;;;;;11.00;4.13;;;6.20;95.40;;;;;;4954949;29;20237;-65
2022/11/26 03:21:25;;;;;;;3.55;2.80;;;6.10;95.50;;;;;;4956337;29;20240;-66
2022/11/26 03:23:52;;;;;;;5.35;2.75;;;6.20;95.40;;;;;;4955183;29;20193;-65
2022/11/26 03:26:19;;;;;;;3.55;2.72;;;6.10;95.60;;;;;;4956525;29;20201;-65
2022/11/26 03:28:46;;;;;;;4.03;2.75;;;6.00;95.80;;;;;;4955109;29;20249;-65
2022/11/26 03:31:13;;;;;;;6.53;3.28;;;6.00;96.00;;;;;;4956653;29;20237;-67
2022/11/26 03:33:40;;;;;;;6.55;3.58;;;5.90;95.90;;;;;;4955197;29;20253;-65
2022/11/26 03:36:07;;;;;;;4.15;2.90;;;5.90;96.00;;;;;;4956663;29;20223;-65
2022/11/26 03:38:36;;;;;;;4.78;2.72;;;6.00;96.00;;;;;;4955190;29;20221;-66
2022/11/26 03:41:04;;;;;;;8.60;2.90;;;6.00;96.00;;;;;;4956539;29;20189;-66
2022/11/26 03:43:31;;;;;;;4.10;3.20;;;6.00;96.00;;;;;;4955056;29;20186;-65
2022/11/26 03:45:58;;;;;;;3.97;2.40;;;6.00;96.10;;;;;;4955869;29;20287;-66
2022/11/26 03:48:25;;;;;;;3.35;1.90;;;6.10;96.10;;;;;;4955548;29;20218;-66
2022/11/26 03:50:52;;;;;;;3.75;2.05;;;6.10;96.00;;;;;;4956441;29;20198;-65
2022/11/26 03:53:19;;;;;;;3.53;1.83;;;6.10;96.00;;;;;;4955370;29;20225;-65
2022/11/26 03:55:48;;;;;;;3.08;1.80;;;6.10;95.70;;;;;;4956268;29;20225;-65
2022/11/26 03:58:15;;;;;;;4.75;2.13;;;6.10;95.70;;;;;;4954924;29;20217;-66
2022/11/26 04:00:42;;;;;;;7.45;2.25;;;6.10;95.70;;;;;;4956086;29;20225;-66
2022/11/26 04:03:09;;;;;;;5.85;2.50;;;6.20;95.40;;;;;;4955127;29;20257;-66
2022/11/26 04:05:35;;;;;;;4.53;1.85;;;6.20;95.60;;;;;;4956149;29;20225;-65
2022/11/26 04:08:02;;;;;;;3.15;1.75;;;6.20;95.30;;;;;;4955437;29;20257;-66
2022/11/26 04:10:29;;;;;;;7.55;2.10;;;6.30;95.20;;;;;;4955556;28;20249;-66
2022/11/26 04:12:58;;;;;;;4.00;2.05;;;6.30;95.00;;;;;;4954546;29;20221;-66
2022/11/26 04:15:25;;;;;;;5.15;2.03;;;6.30;94.70;;;;;;4955708;29;20244;-66
2022/11/26 04:17:52;;;;;;;4.03;1.67;;;6.40;94.40;;;;;;4954992;29;20194;-65
2022/11/26 04:20:19;;;;;;;3.75;2.20;;;6.40;94.40;;;;;;4955896;29;20264;-65
2022/11/26 04:22:46;;;;;;;3.20;2.08;;;6.30;94.40;;;;;;4955032;29;20610;-66
2022/11/26 04:25:13;;;;;;;5.70;1.40;;;6.30;94.50;;;;;;4955603;29;20237;-66
2022/11/26 04:27:40;;;;;;;6.35;1.85;;;6.40;94.30;;;;;;4954241;29;20225;-65
2022/11/26 04:30:10;;;;;;;4.05;2.30;;;6.30;94.30;;;;;;4955582;29;20299;-65
2022/11/26 04:32:38;;;;;;;3.20;2.08;;;6.30;94.40;;;;;;4954762;29;20701;-66
2022/11/26 04:35:06;;;;;;;4.25;2.47;;;6.20;94.50;;;;;;4954319;29;20186;-65
2022/11/26 04:37:34;;;;;;;4.47;2.40;;;6.20;94.70;;;;;;4955114;29;20198;-66
2022/11/26 04:40:01;;;;;;;2.97;2.38;;;6.10;95.00;;;;;;4954435;29;20269;-66
2022/11/26 04:42:28;;;;;;;5.63;3.25;;;6.00;95.20;;;;;;4955480;29;20256;-66
2022/11/26 04:44:55;;;;;;;6.03;2.75;;;6.00;95.40;;;;;;4954582;29;20194;-66
2022/11/26 04:47:23;;;;;;;6.35;1.92;;;6.00;95.40;;;;;;4955109;29;20248;-66
2022/11/26 04:49:50;;;;;;;4.05;1.80;;;5.90;95.80;;;;;;4954669;29;20233;-66
2022/11/26 04:52:17;;;;;;;2.90;1.67;;;6.00;95.80;;;;;;4955506;29;20194;-66
2022/11/26 04:54:44;;;;;;;6.22;1.70;;;6.00;95.80;;;;;;4955227;29;20269;-66
2022/11/26 04:57:11;;;;;;;2.40;1.45;;;6.10;95.70;;;;;;4954259;29;20272;-66
2022/11/26 04:59:38;;;;;;;4.15;1.50;;;6.20;95.60;;;;;;4955154;29;20225;-66
2022/11/26 05:02:05;;;;;;;4.82;2.03;;;6.30;95.50;;;;;;4954070;29;20248;-66
2022/11/26 05:04:34;;;;;;;2.95;1.65;;;6.40;95.50;;;;;;4953407;29;20641;-66
2022/11/26 05:07:01;;;;;;;3.65;2.08;;;6.50;95.10;;;;;;4955086;29;20205;-66
2022/11/26 05:09:28;;;;;;;5.50;1.73;;;6.60;94.90;;;;;;4954033;29;20269;-66
2022/11/26 05:11:55;;;;;;;3.67;1.65;;;6.60;94.70;;;;;;4955000;29;20260;-67
2022/11/26 05:14:22;;;;;;;2.92;1.40;;;6.60;94.60;;;;;;4954116;29;20225;-66
2022/11/26 05:16:49;;;;;;;4.93;2.17;;;6.70;94.50;;;;;;4954414;29;20225;-66
2022/11/26 05:19:16;;;;;;;3.28;1.60;;;6.70;94.40;;;;;;4954283;29;20194;-66
2022/11/26 05:21:44;;;;;;;2.65;1.20;;;6.70;94.40;;;;;;4954228;28;20257;-66
2022/11/26 05:24:11;;;;;;;4.07;2.13;;;6.70;94.30;;;;;;4953554;29;20252;-66
2022/11/26 05:26:38;;;;;;;4.05;1.98;;;6.70;94.40;;;;;;4953719;29;20225;-66
2022/11/26 05:29:05;;;;;;;8.45;4.00;;;6.70;94.40;;;;;;4954664;29;20193;-66
2022/11/26 05:31:32;;;;;;;4.70;2.10;;;6.70;94.20;;;;;;4953183;29;20249;-66
2022/11/26 05:33:59;;;;;;;2.95;1.90;;;6.80;94.10;;;;;;4954540;29;20633;-66
2022/11/26 05:36:26;;;;;;;5.15;2.13;;;6.80;94.10;;;;;;4953464;29;20197;-66
2022/11/26 05:38:54;;;;;;;4.70;2.70;;;6.80;94.00;;;;;;4954636;29;20272;-66
2022/11/26 05:41:21;;;;;;;6.63;3.10;;;6.90;93.90;;;;;;4953820;29;20667;-66
2022/11/26 05:43:48;;;;;;;8.30;2.55;;;6.90;93.90;;;;;;4954581;29;20268;-66
2022/11/26 05:46:17;;;;;;;7.53;3.88;;;6.90;93.70;;;;;;4953405;29;20185;-66
2022/11/26 05:48:45;;;;;;;6.10;5.18;;;6.90;93.70;;;;;;4954535;29;20209;-67
2022/11/26 05:51:12;;;;;;;5.32;3.45;;;6.90;93.50;;;;;;4953533;29;20213;-66
2022/11/26 05:53:39;;;;;;;4.95;2.70;;;6.90;93.40;;;;;;4954338;29;20221;-66
2022/11/26 05:56:08;;;;;;;6.38;3.47;;;6.80;93.50;;;;;;4953672;29;20276;-66
2022/11/26 05:58:34;;;;;;;8.90;4.13;;;6.80;93.70;;;;;;4954494;29;20541;-66
2022/11/26 06:01:06;;;;;;;5.70;3.22;;;6.70;93.70;;;;;;4952823;29;20198;-66
2022/11/26 06:03:33;;;;;;;8.75;3.13;;;6.70;94.10;;;;;;4954272;28;20700;-67
2022/11/26 06:06:00;;;;;;;5.45;3.05;;;6.70;94.00;;;;;;4953655;29;20667;-67
2022/11/26 06:08:27;;;;;;;5.65;3.75;;;6.70;94.00;;;;;;4953958;29;20222;-66
2022/11/26 06:10:54;;;;;;;6.93;3.95;;;6.80;93.80;;;;;;4954356;29;20260;-67
2022/11/26 06:13:23;;;;;;;6.95;4.10;;;6.80;94.00;;;;;;4952390;29;20339;-66
2022/11/26 06:15:50;;;;;;;10.38;5.88;;;6.70;94.20;;;;;;4954368;29;20232;-66
2022/11/26 06:18:17;;;;;;;3.70;2.17;;;6.70;94.50;;;;;;4953912;29;20190;-66
2022/11/26 06:20:44;;;;;;;4.05;2.42;;;6.70;94.60;;;;;;4954394;29;20285;-66
2022/11/26 06:23:11;;;;;;;3.67;2.58;;;6.80;94.40;;;;;;4953018;29;20194;-66
2022/11/26 06:25:40;;;;;;;5.95;3.00;;;6.80;94.30;;;;;;4953688;29;20197;-66
2022/11/26 06:28:07;;;;;;;6.70;2.95;;;6.80;94.30;;;;;;4953302;29;20198;-66
2022/11/26 06:30:35;;;;;;;6.85;2.50;;;6.90;94.40;;;;;;4953962;29;20233;-66
2022/11/26 06:33:02;;;;;;;5.43;3.20;;;6.90;94.40;;;;;;4953150;29;20542;-67
2022/11/26 06:35:29;;;;;;;3.78;2.40;;;7.00;94.50;;;;;;4956941;28;20229;-66
2022/11/26 06:37:56;;;;;;;3.70;2.22;;;7.00;94.40;;;;;;4956087;29;20221;-66
2022/11/26 06:40:23;;;;;;;3.63;2.20;;;7.00;94.40;;;;;;4957788;29;20222;-67
2022/11/26 06:42:51;;;;;;;3.13;2.38;;;7.00;94.50;;;;;;4956905;29;20599;-66
2022/11/26 06:45:18;;;;;;;4.70;3.00;;;7.10;94.50;;;;;;4957490;29;20204;-66
2022/11/26 06:47:48;;;;;;;4.78;2.63;;;7.10;94.20;;;;;;4953187;29;20241;-66
2022/11/26 06:50:17;;;;;;;2.90;2.10;;;7.10;94.20;;;;;;4955814;29;20653;-66
2022/11/26 06:52:44;;;;;;;4.95;2.50;;;7.10;94.10;;;;;;4956732;29;20197;-66
2022/11/26 06:55:11;;;;;;;9.40;5.72;;;7.10;94.00;;;;;;4956684;29;20226;-67
2022/11/26 06:57:38;;;;;;;4.18;2.80;;;7.10;94.10;;;;;;4956186;29;20217;-66
2022/11/26 07:00:08;;;;;;;6.10;2.28;;;7.00;94.10;;;;;;4957229;29;20194;-66
2022/11/26 07:02:35;;;;;;;5.63;2.22;;;7.00;94.20;;;;;;4956841;29;20237;-66
2022/11/26 07:05:03;;;;;;;4.10;2.45;;;6.90;94.40;;;;;;4956735;29;20237;-66
2022/11/26 07:07:30;;;;;;;6.22;1.98;;;6.90;94.60;;;;;;4955493;29;20249;-66
2022/11/26 07:09:57;;;;;;;6.78;2.28;;;6.90;94.80;;;;;;4957161;29;20244;-66
2022/11/26 07:12:24;;;;;;;6.10;2.10;;;6.90;94.80;;;;;;4955972;29;20213;-66
2022/11/26 07:14:51;;;;;;;6.25;3.40;;;6.90;94.90;;;;;;4955566;29;20260;-66
2022/11/26 07:17:18;;;;;;;4.82;3.20;;;7.00;94.70;;;;;;4955268;29;20233;-66
2022/11/26 07:19:45;;;;;;;5.00;3.05;;;7.00;94.70;;;;;;4956879;29;20225;-66
2022/11/26 07:22:13;;;;;;;4.97;3.40;;;7.00;94.70;;;;;;4956419;29;20734;-66
2022/11/26 07:24:40;;;;;;;5.45;3.85;;;7.10;94.70;;;;;;4956316;29;20286;-66
2022/11/26 07:27:08;;;;;;;6.53;4.32;;;7.10;94.70;;;;;;4956292;29;20260;-66
2022/11/26 07:29:35;;;;;;;14.75;8.38;;;7.10;94.60;;;;;;4956894;29;20608;-66
2022/11/26 07:32:02;;;;;;;12.48;7.47;;;7.20;94.70;;;;;;4956048;29;20589;-66
2022/11/26 07:34:29;;;;;;;12.07;7.72;;;7.30;94.80;;;;;;4955705;29;20676;-66
2022/11/26 07:36:56;;;;;;;9.30;7.57;;;7.30;94.90;;;;;;4956004;29;20552;-66
2022/11/26 07:39:24;;;;;;;7.57;5.50;;;7.30;94.80;;;;;;4956829;29;20229;-67
2022/11/26 07:41:51;;;;;;;11.43;6.22;;;7.40;94.80;;;;;;4955911;29;20198;-66
2022/11/26 07:44:18;;;;;;;11.15;6.30;;;7.40;94.80;;;;;;4956560;29;20241;-66
2022/11/26 07:46:45;;;;;;;8.85;5.28;;;7.40;94.80;;;;;;4954928;28;20225;-66
2022/11/26 07:49:12;;;;;;;8.45;4.72;;;7.50;94.80;;;;;;4956399;29;20330;-66
2022/11/26 07:51:39;;;;;;;12.18;4.65;;;7.50;94.90;;;;;;4955548;29;20182;-66
2022/11/26 07:54:08;;;;;;;10.43;6.05;;;7.50;95.00;;;;;;4956445;29;20313;-66
2022/11/26 07:56:36;;;;;;;13.10;7.60;;;7.60;95.00;;;;;;4952042;28;20190;-66
2022/11/26 07:59:11;;;;;;;9.65;5.25;;;7.60;94.80;;;;;;4954145;29;20190;-69
2022/11/26 08:01:38;;;;;;;11.82;5.80;;;7.60;95.00;;;;;;4954757;29;20193;-66
2022/11/26 08:04:06;;;;;;;15.18;6.18;;;7.70;95.10;;;;;;4952614;29;20713;-67
2022/11/26 08:06:33;;;;;;;12.05;6.20;;;7.70;95.00;;;;;;4949877;29;20186;-67
2022/11/26 08:09:02;;;;;;;12.10;8.40;;;7.70;95.00;;;;;;4954569;29;20201;-66
2022/11/26 08:11:30;;;;;;;15.50;8.02;;;7.70;94.80;;;;;;4953266;29;20253;-66
2022/11/26 08:14:01;;;;;;;12.05;6.82;;;7.70;94.90;;;;;;4950460;29;20213;-66
2022/11/26 08:16:28;;;;;;;11.38;6.80;;;7.70;94.80;;;;;;4953642;29;20312;-66
2022/11/26 08:18:56;;;;;;;6.82;4.35;;;7.80;95.40;;;;;;4954275;29;20672;-66
2022/11/26 08:21:23;;;;;;;9.48;4.82;;;7.80;94.90;;;;;;4952673;29;20256;-67
2022/11/26 08:23:51;;;;;;;9.23;4.97;;;7.70;94.10;;;;;;4954011;29;20648;-66
2022/11/26 08:26:19;;;;;;;10.70;6.32;;;7.70;94.00;;;;;;4952947;29;20221;-66
2022/11/26 08:28:47;;;;;;;8.77;5.25;;;7.80;94.30;;;;;;4953843;29;20280;-67
2022/11/26 08:31:17;;;;;;;13.55;9.20;;;7.80;94.40;;;;;;4948092;29;20221;-66
2022/11/26 08:33:45;;;;;;;13.85;8.07;;;7.80;94.30;;;;;;4952884;29;20222;-67
2022/11/26 08:36:12;;;;;;;11.25;6.45;;;7.60;94.40;;;;;;4950822;29;20645;-66
2022/11/26 08:38:39;;;;;;;10.75;6.00;;;7.60;94.70;;;;;;4953539;29;20660;-67
2022/11/26 08:41:08;;;;;;;9.93;5.70;;;7.60;94.80;;;;;;4952906;29;20467;-67
2022/11/26 08:43:36;;;;;;;9.43;5.57;;;7.50;94.80;;;;;;4950064;29;20197;-67
2022/11/26 08:46:04;;;;;;;7.20;4.20;;;7.50;95.10;;;;;;4953857;29;20205;-66
2022/11/26 08:48:33;;;;;;;5.93;3.50;;;7.50;95.40;;;;;;4954031;29;20229;-66
2022/11/26 08:51:02;;;;;;;7.88;3.53;;;7.60;95.50;;;;;;4953550;29;20256;-66
2022/11/26 08:53:30;;;;;;;7.90;3.28;;;7.50;95.20;;;;;;4953807;29;20649;-66
2022/11/26 08:56:00;;;;;;;7.07;3.72;;;7.50;95.30;;;;;;4953602;29;20225;-66
2022/11/26 08:58:27;;;;;;;8.35;3.92;;;7.40;95.30;;;;;;4952331;28;20229;-67
2022/11/26 09:00:55;;;;;;;8.00;5.50;;;7.40;95.40;;;;;;4953477;29;20194;-67
2022/11/26 09:03:22;;;;;;;7.30;3.78;;;7.40;96.10;;;;;;4952844;29;20209;-66
2022/11/26 09:05:51;;;;;;;6.50;3.60;;;7.60;96.00;;;;;;4953842;29;20201;-66
2022/11/26 09:08:18;;;;;;;9.57;4.00;;;7.70;95.90;;;;;;4952156;29;20193;-66
2022/11/26 09:10:54;;;;;;;9.18;4.13;;;7.80;95.70;;;;;;4953858;29;20200;-66
2022/11/26 09:13:21;;;;;;;5.00;2.90;;;8.00;95.70;;;;;;4952860;29;20221;-66
2022/11/26 09:18:29;;;;;;;7.03;4.30;;;8.20;94.60;;;;;;4941753;28;20213;-66
2022/11/26 09:21:02;;;;;;;9.93;3.70;;;8.30;94.40;;;;;;4952222;29;20245;-66
2022/11/26 09:23:29;;;;;;;3.65;2.80;;;8.40;93.70;;;;;;4952323;29;20252;-66
2022/11/26 09:25:56;;;;;;;5.30;4.07;;;8.50;93.50;;;;;;4952076;29;20340;-66
2022/11/26 09:28:23;;;;;;;5.55;3.78;;;8.50;93.20;;;;;;4951053;29;20209;-65
2022/11/26 09:30:56;;;;;;;9.13;2.90;;;8.50;92.90;;;;;;4948523;29;20185;-65
2022/11/26 09:33:23;;;;;;;7.75;3.92;;;8.50;93.00;;;;;;4949794;29;20225;-66
2022/11/26 09:35:50;;;;;;;7.28;3.85;;;8.50;93.10;;;;;;4952661;29;20261;-66
2022/11/26 09:38:19;;;;;;;12.35;4.15;;;8.60;93.40;;;;;;4949760;29;20237;-66
2022/11/26 09:40:50;;;;;;;7.00;4.00;;;8.60;93.70;;;;;;4952671;29;20229;-65
2022/11/26 09:43:25;;;;;;;6.57;3.80;;;8.70;93.60;;;;;;4951543;29;20221;-66
2022/11/26 09:45:58;;;;;;;5.57;3.97;;;8.90;93.50;;;;;;4952416;29;20248;-66
2022/11/26 09:48:26;;;;;;;6.85;4.03;;;9.20;93.10;;;;;;4951802;29;20208;-66
2022/11/26 09:51:05;;;;;;;6.32;4.25;;;9.50;93.40;;;;;;4953036;29;20669;-66
2022/11/26 09:53:37;;;;;;;6.40;4.45;;;9.80;92.90;;;;;;4951962;29;20704;-68
2022/11/26 09:56:09;;;;;;;7.93;3.85;;;10.10;90.60;;;;;;4952695;29;20225;-67
2022/11/26 09:58:45;;;;;;;11.63;4.97;;;10.50;90.90;;;;;;4951454;29;20265;-66
2022/11/26 10:01:17;;;;;;;9.13;4.28;;;11.60;90.20;;;;;;4951186;28;20270;-66
2022/11/26 10:03:44;;;;;;;4.70;3.25;;;13.10;86.00;;;;;;4952261;29;20220;-66
2022/11/26 10:06:26;;;;;;;4.67;2.90;;;14.40;83.20;;;;;;4952888;29;20608;-66
2022/11/26 10:09:19;;;;;;;6.23;2.90;;;14.90;73.90;;;;;;4953650;28;20549;-66
2022/11/26 10:11:53;;;;;;;7.80;4.37;;;15.00;71.60;;;;;;4954751;29;20841;-66
2022/11/26 10:14:38;;;;;;;9.23;3.50;;;15.20;69.90;;;;;;4956141;29;20481;-67
2022/11/26 10:17:17;;;;;;;7.50;4.13;;;15.10;67.60;;;;;;4955265;29;20508;-66
2022/11/26 10:19:59;;;;;;;3.77;2.30;;;15.40;68.70;;;;;;4955557;29;20449;-67
2022/11/26 10:22:29;;;;;;;5.60;2.93;;;15.70;66.40;;;;;;4955245;29;20917;-66
2022/11/26 10:25:02;;;;;;;4.10;2.87;;;15.70;61.40;;;;;;4955474;29;20469;-66
2022/11/26 10:27:33;;;;;;;5.90;2.90;;;15.70;63.30;;;;;;4954941;29;20778;-66
2022/11/26 10:30:09;;;;;;;5.17;1.90;;;15.70;63.30;;;;;;4954772;29;20941;-67
2022/11/26 10:32:39;;;;;;;5.33;2.73;;;15.60;61.70;;;;;;4955209;29;20440;-66
2022/11/26 10:35:07;;;;;;;3.17;2.50;;;15.60;59.60;;;;;;4954413;29;20583;-66
2022/11/26 10:37:34;;;;;;;5.00;2.37;;;15.50;60.10;;;;;;4955275;29;20441;-67
2022/11/26 10:40:19;;;;;;;7.33;2.80;;;15.40;58.60;;;;;;4954796;29;20472;-66
2022/11/26 10:42:58;;;;;;;5.50;2.37;;;15.20;59.20;;;;;;4955129;29;20512;-66
2022/11/26 10:45:34;;;;;;;4.47;3.10;;;15.30;59.90;;;;;;4954695;29;20456;-66
2022/11/26 10:48:16;;;;;;;4.57;1.83;;;15.50;60.70;;;;;;4954585;29;20531;-66
2022/11/26 10:50:54;;;;;;;6.13;2.53;;;15.80;60.30;;;;;;4954366;29;20828;-66
2022/11/26 10:53:23;;;;;;;4.40;2.87;;;16.00;59.20;;;;;;4951561;29;20445;-66
2022/11/26 10:55:55;;;;;;;5.20;3.27;;;15.80;57.00;;;;;;4955067;29;20489;-67
2022/11/26 10:58:25;;;;;;;4.77;2.63;;;15.60;56.80;;;;;;4954544;29;20438;-67
2022/11/26 11:01:01;;;;;;;4.70;2.27;;;15.30;56.70;;;;;;4955092;29;20500;-66
2022/11/26 11:03:33;;;;;;;4.87;2.27;;;15.00;56.60;;;;;;4953997;29;20441;-67
2022/11/26 11:06:12;;;;;;;3.00;2.00;;;14.80;56.20;;;;;;4955046;29;20445;-66
2022/11/26 11:08:39;;;;;;;4.90;2.30;;;14.50;55.90;;;;;;4954267;29;20441;-66
2022/11/26 11:11:19;;;;;;;5.20;2.60;;;14.40;57.40;;;;;;4954247;29;20437;-67
2022/11/26 11:13:47;;;;;;;4.90;1.70;;;14.50;59.20;;;;;;4954093;29;20537;-66
2022/11/26 11:16:16;;;;;;;7.40;2.37;;;14.80;59.40;;;;;;4954280;29;20580;-66
2022/11/26 11:18:51;;;;;;;4.93;2.30;;;15.00;58.00;;;;;;4953840;29;20937;-66
2022/11/26 11:21:20;;;;;;;6.70;2.13;;;15.10;55.90;;;;;;4953424;28;20516;-66
2022/11/26 11:23:48;;;;;;;4.40;1.60;;;15.20;56.70;;;;;;4953396;29;20453;-66
2022/11/26 11:26:21;;;;;;;3.50;1.77;;;15.20;55.80;;;;;;4954609;29;20561;-66
2022/11/26 11:28:50;;;;;;;5.80;2.10;;;15.30;55.60;;;;;;4953295;29;20805;-66
2022/11/26 11:31:19;;;;;;;6.30;2.40;;;15.30;56.90;;;;;;4954035;29;20798;-66
2022/11/26 11:33:47;;;;;;;7.80;2.10;;;15.30;56.70;;;;;;4953097;29;21000;-66
2022/11/26 11:36:25;;;;;;;4.90;2.43;;;15.30;55.60;;;;;;4953896;29;20536;-66
2022/11/26 11:38:54;;;;;;;4.67;1.50;;;15.20;55.90;;;;;;4949135;29;20445;-66
2022/11/26 11:41:30;;;;;;;4.83;2.10;;;14.80;52.90;;;;;;4954313;29;20446;-66
2022/11/26 11:44:04;;;;;;;7.10;2.50;;;14.40;54.50;;;;;;4953601;29;20528;-66
2022/11/26 11:46:56;;;;;;;3.50;2.20;;;14.10;55.20;;;;;;4954496;29;20828;-67
2022/11/26 11:49:32;;;;;;;4.10;1.80;;;13.90;57.30;;;;;;4953126;29;20453;-66
2022/11/26 11:52:07;;;;;;;4.93;2.10;;;13.90;57.80;;;;;;4953970;29;20951;-67
2022/11/26 11:54:46;;;;;;;5.57;2.27;;;13.90;58.10;;;;;;4953593;29;20472;-66
2022/11/26 11:57:24;;;;;;;4.90;2.10;;;13.70;58.00;;;;;;4954025;29;20438;-66
2022/11/26 12:00:12;;;;;;;6.73;1.60;;;13.60;57.80;;;;;;4952231;29;20445;-66
2022/11/26 12:03:17;;;;;;;3.50;1.63;;;13.50;57.90;;;;;;4954076;29;20448;-66
2022/11/26 12:06:04;;;;;;;2.63;1.37;;;13.30;58.00;;;;;;4935283;29;20434;-66
2022/11/26 12:08:41;;;;;;;5.93;2.30;;;13.20;58.10;;;;;;4932770;29;20442;-66
2022/11/26 12:11:23;;;;;;;6.20;1.90;;;13.00;58.10;;;;;;4935116;29;20882;-65
2022/11/26 12:13:55;;;;;;;5.33;2.10;;;12.80;58.60;;;;;;4934421;29;20445;-66
2022/11/26 12:16:25;;;;;;;5.67;2.33;;;12.60;59.40;;;;;;4935098;29;20544;-67
2022/11/26 12:18:59;;;;;;;2.60;1.50;;;12.50;60.70;;;;;;4933027;29;20803;-67
2022/11/26 12:21:32;;;;;;;6.13;3.13;;;12.40;60.90;;;;;;4934131;29;20446;-67
2022/11/26 12:24:06;;;;;;;5.50;2.87;;;12.20;62.10;;;;;;4932503;29;20574;-66
2022/11/26 12:26:37;;;;;;;9.53;3.70;;;12.00;63.30;;;;;;4933035;29;20474;-67
2022/11/26 12:29:13;;;;;;;5.10;2.47;;;11.90;65.30;;;;;;4933486;29;20445;-66
2022/11/26 12:31:45;;;;;;;3.30;1.57;;;11.70;66.40;;;;;;4933329;29;20442;-73
2022/11/26 12:34:23;;;;;;;6.40;2.33;;;11.50;66.80;;;;;;4931738;29;20449;-68
2022/11/26 12:36:55;;;;;;;7.22;2.47;;;11.40;67.20;;;;;;4935046;29;20571;-66
2022/11/26 12:39:31;;;;;;;8.93;2.72;;;11.30;68.40;;;;;;4934577;29;20197;-66
2022/11/26 12:42:03;;;;;;;5.90;2.53;;;11.20;68.60;;;;;;4933789;29;20218;-66
2022/11/26 12:44:36;;;;;;;8.43;5.50;;;11.00;69.20;;;;;;4932706;29;20436;-66
2022/11/26 12:47:11;;;;;;;7.43;4.28;;;10.80;69.40;;;;;;4933114;29;20185;-66
2022/11/26 12:49:45;;;;;;;6.32;3.67;;;10.70;70.30;;;;;;4933021;29;20181;-66
2022/11/26 12:52:26;;;;;;;8.15;4.50;;;10.50;71.70;;;;;;4934465;29;20290;-66
2022/11/26 12:55:03;;;;;;;9.13;4.40;;;10.30;72.90;;;;;;4932488;29;20557;-66
2022/11/26 12:57:36;;;;;;;6.38;4.82;;;10.20;74.20;;;;;;4931991;29;20201;-66
2022/11/26 13:00:11;;;;;;;17.35;11.73;;;10.10;74.80;;;;;;4933835;29;20204;-69
2022/11/26 13:02:42;;;;;;;29.50;20.95;;;10.00;74.90;;;;;;4933310;29;20203;-66
2022/11/26 13:05:16;;;;;;;9.57;6.75;;;9.90;76.70;;;;;;4949476;29;20637;-69
2022/11/26 13:08:02;;;;;;;7.05;4.78;;;9.90;77.80;;;;;;4952438;29;20601;-67
2022/11/26 13:10:47;;;;;;;7.75;4.03;;;9.80;78.60;;;;;;4952940;29;20202;-67
2022/11/26 13:13:22;;;;;;;5.25;3.45;;;9.70;79.50;;;;;;4952493;29;20199;-67